sensor_id;sensor_type;location;lat;lon;timestamp;P1;durP1;ratioP1;P2;durP2;ratioP2
50301;SDS011;36550;50.472;19.744;2024-01-10T00:01:45;166.60;;;47.70;;
50301;SDS011;36550;50.472;19.744;2024-01-10T00:04:30;137.40;;;39.00;;
50301;SDS011;36550;50.472;19.744;2024-01-10T00:07:14;121.90;;;31.50;;
50301;SDS011;36550;50.472;19.744;2024-01-10T00:09:59;102.40;;;31.20;;
50301;SDS011;36550;50.472;19.744;2024-01-10T00:12:45;112.00;;;32.00;;
50301;SDS011;36550;50.472;19.744;2024-01-10T00:15:29;110.30;;;30.80;;
50301;SDS011;36550;50.472;19.744;2024-01-10T00:18:13;212.80;;;55.80;;
50301;SDS011;36550;50.472;19.744;2024-01-10T00:20:57;182.60;;;47.20;;
50301;SDS011;36550;50.472;19.744;2024-01-10T00:23:42;148.00;;;41.40;;
50301;SDS011;36550;50.472;19.744;2024-01-10T00:26:26;170.00;;;41.10;;
50301;SDS011;36550;50.472;19.744;2024-01-10T00:29:10;136.00;;;34.50;;
50301;SDS011;36550;50.472;19.744;2024-01-10T00:31:54;146.70;;;41.80;;
50301;SDS011;36550;50.472;19.744;2024-01-10T00:34:38;141.00;;;38.30;;
50301;SDS011;36550;50.472;19.744;2024-01-10T00:37:22;113.80;;;30.50;;
50301;SDS011;36550;50.472;19.744;2024-01-10T00:40:07;114.60;;;33.10;;
50301;SDS011;36550;50.472;19.744;2024-01-10T00:42:52;130.70;;;34.10;;
50301;SDS011;36550;50.472;19.744;2024-01-10T00:45:36;132.80;;;33.20;;
50301;SDS011;36550;50.472;19.744;2024-01-10T00:48:20;110.60;;;28.80;;
50301;SDS011;36550;50.472;19.744;2024-01-10T00:51:04;96.60;;;26.00;;
50301;SDS011;36550;50.472;19.744;2024-01-10T00:53:52;91.70;;;27.30;;
50301;SDS011;36550;50.472;19.744;2024-01-10T00:56:36;103.30;;;30.90;;
50301;SDS011;36550;50.472;19.744;2024-01-10T00:59:20;187.50;;;47.50;;
50301;SDS011;36550;50.472;19.744;2024-01-10T01:02:04;132.00;;;36.70;;
50301;SDS011;36550;50.472;19.744;2024-01-10T01:04:49;140.30;;;33.90;;
50301;SDS011;36550;50.472;19.744;2024-01-10T01:07:33;114.20;;;33.40;;
50301;SDS011;36550;50.472;19.744;2024-01-10T01:10:18;146.00;;;34.60;;
50301;SDS011;36550;50.472;19.744;2024-01-10T01:13:03;112.30;;;34.20;;
50301;SDS011;36550;50.472;19.744;2024-01-10T01:15:47;130.80;;;35.80;;
50301;SDS011;36550;50.472;19.744;2024-01-10T01:18:31;134.70;;;34.80;;
50301;SDS011;36550;50.472;19.744;2024-01-10T01:21:16;107.60;;;30.30;;
50301;SDS011;36550;50.472;19.744;2024-01-10T01:24:00;104.10;;;28.50;;
50301;SDS011;36550;50.472;19.744;2024-01-10T01:26:44;132.70;;;33.90;;
50301;SDS011;36550;50.472;19.744;2024-01-10T01:29:28;97.20;;;27.10;;
50301;SDS011;36550;50.472;19.744;2024-01-10T01:32:12;88.90;;;24.30;;
50301;SDS011;36550;50.472;19.744;2024-01-10T01:34:57;83.90;;;21.70;;
50301;SDS011;36550;50.472;19.744;2024-01-10T01:37:41;86.70;;;23.20;;
50301;SDS011;36550;50.472;19.744;2024-01-10T01:40:26;75.10;;;19.60;;
50301;SDS011;36550;50.472;19.744;2024-01-10T01:43:23;93.50;;;21.20;;
50301;SDS011;36550;50.472;19.744;2024-01-10T01:46:08;58.50;;;17.30;;
50301;SDS011;36550;50.472;19.744;2024-01-10T01:48:52;105.80;;;29.30;;
50301;SDS011;36550;50.472;19.744;2024-01-10T01:51:37;119.00;;;30.40;;
50301;SDS011;36550;50.472;19.744;2024-01-10T01:54:21;113.20;;;31.90;;
50301;SDS011;36550;50.472;19.744;2024-01-10T01:57:07;106.50;;;31.60;;
50301;SDS011;36550;50.472;19.744;2024-01-10T01:59:51;109.40;;;30.40;;
50301;SDS011;36550;50.472;19.744;2024-01-10T02:02:35;120.00;;;27.90;;
50301;SDS011;36550;50.472;19.744;2024-01-10T02:05:20;112.40;;;29.80;;
50301;SDS011;36550;50.472;19.744;2024-01-10T02:08:05;100.60;;;27.00;;
50301;SDS011;36550;50.472;19.744;2024-01-10T02:10:50;97.90;;;28.80;;
50301;SDS011;36550;50.472;19.744;2024-01-10T02:13:34;113.80;;;31.90;;
50301;SDS011;36550;50.472;19.744;2024-01-10T02:16:19;126.80;;;32.50;;
50301;SDS011;36550;50.472;19.744;2024-01-10T02:19:20;130.10;;;35.90;;
50301;SDS011;36550;50.472;19.744;2024-01-10T02:22:06;98.00;;;27.40;;
50301;SDS011;36550;50.472;19.744;2024-01-10T02:24:53;119.10;;;32.60;;
50301;SDS011;36550;50.472;19.744;2024-01-10T02:27:38;124.60;;;35.30;;
50301;SDS011;36550;50.472;19.744;2024-01-10T02:30:23;110.30;;;28.00;;
50301;SDS011;36550;50.472;19.744;2024-01-10T02:33:08;103.90;;;30.10;;
50301;SDS011;36550;50.472;19.744;2024-01-10T02:35:52;76.90;;;23.60;;
50301;SDS011;36550;50.472;19.744;2024-01-10T02:38:36;91.80;;;25.10;;
50301;SDS011;36550;50.472;19.744;2024-01-10T02:41:20;73.30;;;19.20;;
50301;SDS011;36550;50.472;19.744;2024-01-10T02:44:05;68.90;;;18.70;;
50301;SDS011;36550;50.472;19.744;2024-01-10T02:46:49;86.20;;;25.00;;
50301;SDS011;36550;50.472;19.744;2024-01-10T02:49:33;93.60;;;26.90;;
50301;SDS011;36550;50.472;19.744;2024-01-10T02:52:18;89.80;;;26.10;;
50301;SDS011;36550;50.472;19.744;2024-01-10T02:55:03;87.50;;;23.00;;
50301;SDS011;36550;50.472;19.744;2024-01-10T02:57:48;95.90;;;25.60;;
50301;SDS011;36550;50.472;19.744;2024-01-10T03:00:32;91.20;;;24.20;;
50301;SDS011;36550;50.472;19.744;2024-01-10T03:03:16;83.70;;;22.80;;
50301;SDS011;36550;50.472;19.744;2024-01-10T03:06:01;92.00;;;24.60;;
50301;SDS011;36550;50.472;19.744;2024-01-10T03:08:45;93.10;;;26.60;;
50301;SDS011;36550;50.472;19.744;2024-01-10T03:11:29;72.40;;;22.20;;
50301;SDS011;36550;50.472;19.744;2024-01-10T03:14:14;112.90;;;27.70;;
50301;SDS011;36550;50.472;19.744;2024-01-10T03:16:59;102.40;;;26.60;;
50301;SDS011;36550;50.472;19.744;2024-01-10T03:19:43;87.00;;;24.70;;
50301;SDS011;36550;50.472;19.744;2024-01-10T03:22:29;92.30;;;25.30;;
50301;SDS011;36550;50.472;19.744;2024-01-10T03:25:14;69.50;;;19.80;;
50301;SDS011;36550;50.472;19.744;2024-01-10T03:27:58;83.50;;;23.50;;
50301;SDS011;36550;50.472;19.744;2024-01-10T03:30:42;70.30;;;23.40;;
50301;SDS011;36550;50.472;19.744;2024-01-10T03:33:27;88.30;;;23.80;;
50301;SDS011;36550;50.472;19.744;2024-01-10T03:36:16;77.70;;;20.60;;
50301;SDS011;36550;50.472;19.744;2024-01-10T03:39:01;100.60;;;27.70;;
50301;SDS011;36550;50.472;19.744;2024-01-10T03:41:45;78.60;;;22.90;;
50301;SDS011;36550;50.472;19.744;2024-01-10T03:44:29;110.10;;;31.40;;
50301;SDS011;36550;50.472;19.744;2024-01-10T03:47:13;75.70;;;19.90;;
50301;SDS011;36550;50.472;19.744;2024-01-10T03:49:58;80.10;;;20.00;;
50301;SDS011;36550;50.472;19.744;2024-01-10T03:52:43;67.40;;;18.40;;
50301;SDS011;36550;50.472;19.744;2024-01-10T03:55:27;77.20;;;20.60;;
50301;SDS011;36550;50.472;19.744;2024-01-10T03:58:11;63.30;;;15.90;;
50301;SDS011;36550;50.472;19.744;2024-01-10T04:00:55;69.30;;;21.40;;
50301;SDS011;36550;50.472;19.744;2024-01-10T04:03:39;77.30;;;21.80;;
50301;SDS011;36550;50.472;19.744;2024-01-10T04:06:28;66.50;;;22.50;;
50301;SDS011;36550;50.472;19.744;2024-01-10T04:09:13;77.20;;;21.40;;
50301;SDS011;36550;50.472;19.744;2024-01-10T04:11:57;59.30;;;17.80;;
50301;SDS011;36550;50.472;19.744;2024-01-10T04:14:42;76.50;;;21.50;;
50301;SDS011;36550;50.472;19.744;2024-01-10T04:17:26;94.50;;;24.50;;
50301;SDS011;36550;50.472;19.744;2024-01-10T04:20:10;72.70;;;21.20;;
50301;SDS011;36550;50.472;19.744;2024-01-10T04:22:54;84.30;;;21.10;;
50301;SDS011;36550;50.472;19.744;2024-01-10T04:25:38;82.40;;;24.00;;
50301;SDS011;36550;50.472;19.744;2024-01-10T04:28:22;85.20;;;22.10;;
50301;SDS011;36550;50.472;19.744;2024-01-10T04:31:06;108.20;;;29.90;;
50301;SDS011;36550;50.472;19.744;2024-01-10T04:33:51;102.50;;;22.20;;
50301;SDS011;36550;50.472;19.744;2024-01-10T04:36:35;78.50;;;22.90;;
50301;SDS011;36550;50.472;19.744;2024-01-10T04:39:19;113.10;;;28.90;;
50301;SDS011;36550;50.472;19.744;2024-01-10T04:42:03;92.70;;;23.60;;
50301;SDS011;36550;50.472;19.744;2024-01-10T04:44:49;84.20;;;23.20;;
50301;SDS011;36550;50.472;19.744;2024-01-10T04:47:33;66.00;;;20.20;;
50301;SDS011;36550;50.472;19.744;2024-01-10T04:50:17;74.90;;;20.50;;
50301;SDS011;36550;50.472;19.744;2024-01-10T04:53:02;61.60;;;20.00;;
50301;SDS011;36550;50.472;19.744;2024-01-10T04:55:46;60.20;;;18.80;;
50301;SDS011;36550;50.472;19.744;2024-01-10T04:58:30;76.70;;;20.90;;
50301;SDS011;36550;50.472;19.744;2024-01-10T05:01:16;68.10;;;20.80;;
50301;SDS011;36550;50.472;19.744;2024-01-10T05:04:00;81.60;;;23.40;;
50301;SDS011;36550;50.472;19.744;2024-01-10T05:06:44;82.30;;;23.10;;
50301;SDS011;36550;50.472;19.744;2024-01-10T05:09:29;106.80;;;26.40;;
50301;SDS011;36550;50.472;19.744;2024-01-10T05:12:13;84.00;;;20.80;;
50301;SDS011;36550;50.472;19.744;2024-01-10T05:14:57;81.20;;;21.00;;
50301;SDS011;36550;50.472;19.744;2024-01-10T05:17:41;86.70;;;24.10;;
50301;SDS011;36550;50.472;19.744;2024-01-10T05:20:26;109.90;;;30.00;;
50301;SDS011;36550;50.472;19.744;2024-01-10T05:23:10;174.10;;;43.60;;
50301;SDS011;36550;50.472;19.744;2024-01-10T05:25:55;111.90;;;30.00;;
50301;SDS011;36550;50.472;19.744;2024-01-10T05:28:39;126.20;;;34.10;;
50301;SDS011;36550;50.472;19.744;2024-01-10T05:31:23;102.80;;;25.30;;
50301;SDS011;36550;50.472;19.744;2024-01-10T05:34:07;95.30;;;25.90;;
50301;SDS011;36550;50.472;19.744;2024-01-10T05:36:52;112.00;;;27.40;;
50301;SDS011;36550;50.472;19.744;2024-01-10T05:39:38;72.00;;;18.80;;
50301;SDS011;36550;50.472;19.744;2024-01-10T05:42:22;77.00;;;22.10;;
50301;SDS011;36550;50.472;19.744;2024-01-10T05:45:06;75.00;;;19.50;;
50301;SDS011;36550;50.472;19.744;2024-01-10T05:47:51;68.70;;;20.10;;
50301;SDS011;36550;50.472;19.744;2024-01-10T05:50:35;80.60;;;21.10;;
50301;SDS011;36550;50.472;19.744;2024-01-10T05:53:20;61.50;;;15.20;;
50301;SDS011;36550;50.472;19.744;2024-01-10T05:56:05;57.80;;;13.60;;
50301;SDS011;36550;50.472;19.744;2024-01-10T05:58:49;51.00;;;14.20;;
50301;SDS011;36550;50.472;19.744;2024-01-10T06:01:34;48.90;;;13.40;;
50301;SDS011;36550;50.472;19.744;2024-01-10T06:04:18;52.30;;;13.20;;
50301;SDS011;36550;50.472;19.744;2024-01-10T06:07:03;94.20;;;25.10;;
50301;SDS011;36550;50.472;19.744;2024-01-10T06:09:47;102.80;;;24.50;;
50301;SDS011;36550;50.472;19.744;2024-01-10T06:12:32;78.70;;;23.30;;
50301;SDS011;36550;50.472;19.744;2024-01-10T06:15:16;72.10;;;18.90;;
50301;SDS011;36550;50.472;19.744;2024-01-10T06:18:00;82.00;;;22.30;;
50301;SDS011;36550;50.472;19.744;2024-01-10T06:20:44;79.60;;;20.40;;
50301;SDS011;36550;50.472;19.744;2024-01-10T06:23:28;79.00;;;23.00;;
50301;SDS011;36550;50.472;19.744;2024-01-10T06:26:12;88.40;;;24.00;;
50301;SDS011;36550;50.472;19.744;2024-01-10T06:28:57;68.50;;;17.10;;
50301;SDS011;36550;50.472;19.744;2024-01-10T06:31:41;105.70;;;29.60;;
50301;SDS011;36550;50.472;19.744;2024-01-10T06:34:26;124.80;;;38.20;;
50301;SDS011;36550;50.472;19.744;2024-01-10T06:37:11;111.40;;;29.90;;
50301;SDS011;36550;50.472;19.744;2024-01-10T06:39:55;121.80;;;28.00;;
50301;SDS011;36550;50.472;19.744;2024-01-10T06:42:40;100.10;;;28.40;;
50301;SDS011;36550;50.472;19.744;2024-01-10T06:45:25;83.40;;;27.70;;
50301;SDS011;36550;50.472;19.744;2024-01-10T06:48:10;102.90;;;26.70;;
50301;SDS011;36550;50.472;19.744;2024-01-10T06:50:54;73.80;;;24.10;;
50301;SDS011;36550;50.472;19.744;2024-01-10T06:53:39;67.00;;;19.60;;
50301;SDS011;36550;50.472;19.744;2024-01-10T06:56:24;69.50;;;22.40;;
50301;SDS011;36550;50.472;19.744;2024-01-10T06:59:08;133.30;;;39.70;;
50301;SDS011;36550;50.472;19.744;2024-01-10T07:01:52;152.50;;;42.80;;
50301;SDS011;36550;50.472;19.744;2024-01-10T07:04:39;135.30;;;40.50;;
50301;SDS011;36550;50.472;19.744;2024-01-10T07:07:23;123.70;;;37.60;;
50301;SDS011;36550;50.472;19.744;2024-01-10T07:10:08;127.70;;;34.20;;
50301;SDS011;36550;50.472;19.744;2024-01-10T07:12:52;117.00;;;34.60;;
50301;SDS011;36550;50.472;19.744;2024-01-10T07:15:36;131.90;;;38.20;;
50301;SDS011;36550;50.472;19.744;2024-01-10T07:18:21;134.40;;;38.70;;
50301;SDS011;36550;50.472;19.744;2024-01-10T07:21:05;166.20;;;47.90;;
50301;SDS011;36550;50.472;19.744;2024-01-10T07:23:49;182.00;;;50.80;;
50301;SDS011;36550;50.472;19.744;2024-01-10T07:26:34;158.70;;;43.20;;
50301;SDS011;36550;50.472;19.744;2024-01-10T07:29:18;186.30;;;51.20;;
50301;SDS011;36550;50.472;19.744;2024-01-10T07:32:03;176.80;;;49.30;;
50301;SDS011;36550;50.472;19.744;2024-01-10T07:34:48;211.40;;;61.60;;
50301;SDS011;36550;50.472;19.744;2024-01-10T07:37:32;226.00;;;65.90;;
50301;SDS011;36550;50.472;19.744;2024-01-10T07:40:16;264.20;;;70.30;;
50301;SDS011;36550;50.472;19.744;2024-01-10T07:43:01;264.10;;;70.50;;
50301;SDS011;36550;50.472;19.744;2024-01-10T07:45:46;211.80;;;60.80;;
50301;SDS011;36550;50.472;19.744;2024-01-10T07:48:30;274.50;;;75.70;;
50301;SDS011;36550;50.472;19.744;2024-01-10T07:51:15;221.40;;;57.90;;
50301;SDS011;36550;50.472;19.744;2024-01-10T07:53:59;185.10;;;50.00;;
50301;SDS011;36550;50.472;19.744;2024-01-10T07:56:43;202.10;;;54.80;;
50301;SDS011;36550;50.472;19.744;2024-01-10T07:59:28;180.00;;;51.80;;
50301;SDS011;36550;50.472;19.744;2024-01-10T08:02:12;193.90;;;53.10;;
50301;SDS011;36550;50.472;19.744;2024-01-10T08:04:56;202.50;;;55.60;;
50301;SDS011;36550;50.472;19.744;2024-01-10T08:07:41;210.50;;;60.90;;
50301;SDS011;36550;50.472;19.744;2024-01-10T08:10:25;249.80;;;74.80;;
50301;SDS011;36550;50.472;19.744;2024-01-10T08:13:11;337.20;;;95.50;;
50301;SDS011;36550;50.472;19.744;2024-01-10T08:16:55;294.10;;;80.00;;
50301;SDS011;36550;50.472;19.744;2024-01-10T08:19:41;241.60;;;70.00;;
50301;SDS011;36550;50.472;19.744;2024-01-10T08:22:26;221.50;;;65.90;;
50301;SDS011;36550;50.472;19.744;2024-01-10T08:25:10;230.20;;;63.60;;
50301;SDS011;36550;50.472;19.744;2024-01-10T08:27:56;292.90;;;82.20;;
50301;SDS011;36550;50.472;19.744;2024-01-10T08:30:41;264.90;;;72.80;;
50301;SDS011;36550;50.472;19.744;2024-01-10T08:34:26;176.80;;;50.90;;
50301;SDS011;36550;50.472;19.744;2024-01-10T08:38:11;168.30;;;43.40;;
50301;SDS011;36550;50.472;19.744;2024-01-10T08:41:56;131.40;;;36.20;;
50301;SDS011;36550;50.472;19.744;2024-01-10T08:45:40;157.20;;;42.60;;
50301;SDS011;36550;50.472;19.744;2024-01-10T08:49:25;142.60;;;39.50;;
50301;SDS011;36550;50.472;19.744;2024-01-10T08:53:10;106.30;;;30.90;;
50301;SDS011;36550;50.472;19.744;2024-01-10T08:56:54;143.30;;;38.70;;
50301;SDS011;36550;50.472;19.744;2024-01-10T09:00:39;169.30;;;49.40;;
50301;SDS011;36550;50.472;19.744;2024-01-10T09:04:24;171.30;;;50.70;;
50301;SDS011;36550;50.472;19.744;2024-01-10T09:08:09;180.30;;;50.40;;
50301;SDS011;36550;50.472;19.744;2024-01-10T09:11:54;192.90;;;51.60;;
50301;SDS011;36550;50.472;19.744;2024-01-10T09:15:38;181.20;;;54.30;;
50301;SDS011;36550;50.472;19.744;2024-01-10T09:19:24;162.90;;;46.00;;
50301;SDS011;36550;50.472;19.744;2024-01-10T09:23:09;199.90;;;55.90;;
50301;SDS011;36550;50.472;19.744;2024-01-10T09:26:53;257.00;;;72.20;;
50301;SDS011;36550;50.472;19.744;2024-01-10T09:30:38;242.90;;;64.20;;
50301;SDS011;36550;50.472;19.744;2024-01-10T09:34:23;279.30;;;77.60;;
50301;SDS011;36550;50.472;19.744;2024-01-10T09:38:08;228.00;;;65.40;;
50301;SDS011;36550;50.472;19.744;2024-01-10T09:41:53;263.50;;;74.20;;
50301;SDS011;36550;50.472;19.744;2024-01-10T09:45:41;222.50;;;63.10;;
50301;SDS011;36550;50.472;19.744;2024-01-10T09:49:22;258.00;;;69.30;;
50301;SDS011;36550;50.472;19.744;2024-01-10T09:53:07;243.60;;;70.90;;
50301;SDS011;36550;50.472;19.744;2024-01-10T09:56:52;248.40;;;66.60;;
50301;SDS011;36550;50.472;19.744;2024-01-10T10:00:37;311.60;;;82.70;;
50301;SDS011;36550;50.472;19.744;2024-01-10T10:04:21;210.90;;;62.70;;
50301;SDS011;36550;50.472;19.744;2024-01-10T10:08:06;174.80;;;51.90;;
50301;SDS011;36550;50.472;19.744;2024-01-10T10:11:54;139.10;;;42.30;;
50301;SDS011;36550;50.472;19.744;2024-01-10T10:15:38;106.30;;;32.10;;
50301;SDS011;36550;50.472;19.744;2024-01-10T10:19:26;83.90;;;25.20;;
50301;SDS011;36550;50.472;19.744;2024-01-10T10:23:11;106.20;;;30.20;;
50301;SDS011;36550;50.472;19.744;2024-01-10T10:26:56;165.80;;;47.00;;
50301;SDS011;36550;50.472;19.744;2024-01-10T10:30:40;236.00;;;70.80;;
50301;SDS011;36550;50.472;19.744;2024-01-10T10:34:30;250.60;;;78.60;;
50301;SDS011;36550;50.472;19.744;2024-01-10T10:38:10;256.00;;;80.50;;
50301;SDS011;36550;50.472;19.744;2024-01-10T10:41:55;213.70;;;63.30;;
50301;SDS011;36550;50.472;19.744;2024-01-10T10:45:39;201.00;;;57.90;;
50301;SDS011;36550;50.472;19.744;2024-01-10T10:49:26;238.60;;;75.30;;
50301;SDS011;36550;50.472;19.744;2024-01-10T10:52:16;210.60;;;66.40;;
50301;SDS011;36550;50.472;19.744;2024-01-10T10:55:01;177.80;;;55.40;;
50301;SDS011;36550;50.472;19.744;2024-01-10T10:57:48;186.10;;;58.50;;
50301;SDS011;36550;50.472;19.744;2024-01-10T11:00:32;183.40;;;53.90;;
50301;SDS011;36550;50.472;19.744;2024-01-10T11:03:17;160.20;;;49.20;;
50301;SDS011;36550;50.472;19.744;2024-01-10T11:06:04;146.10;;;45.00;;
50301;SDS011;36550;50.472;19.744;2024-01-10T11:08:52;137.00;;;41.90;;
50301;SDS011;36550;50.472;19.744;2024-01-10T11:24:10;180.30;;;54.90;;
50301;SDS011;36550;50.472;19.744;2024-01-10T11:27:07;170.90;;;53.20;;
50301;SDS011;36550;50.472;19.744;2024-01-10T11:29:55;146.50;;;43.70;;
50301;SDS011;36550;50.472;19.744;2024-01-10T11:35:27;132.80;;;39.70;;
50301;SDS011;36550;50.472;19.744;2024-01-10T11:38:14;125.70;;;37.20;;
50301;SDS011;36550;50.472;19.744;2024-01-10T11:40:58;110.40;;;34.30;;
50301;SDS011;36550;50.472;19.744;2024-01-10T11:43:42;94.90;;;31.50;;
50301;SDS011;36550;50.472;19.744;2024-01-10T11:46:26;112.80;;;36.00;;
50301;SDS011;36550;50.472;19.744;2024-01-10T11:49:10;158.00;;;51.30;;
50301;SDS011;36550;50.472;19.744;2024-01-10T11:51:56;330.60;;;94.20;;
50301;SDS011;36550;50.472;19.744;2024-01-10T11:57:27;193.30;;;57.80;;
50301;SDS011;36550;50.472;19.744;2024-01-10T12:00:15;215.80;;;64.30;;
50301;SDS011;36550;50.472;19.744;2024-01-10T12:03:00;192.20;;;60.50;;
50301;SDS011;36550;50.472;19.744;2024-01-10T12:05:45;166.60;;;55.80;;
50301;SDS011;36550;50.472;19.744;2024-01-10T12:08:29;193.00;;;57.80;;
50301;SDS011;36550;50.472;19.744;2024-01-10T12:11:14;183.10;;;56.80;;
50301;SDS011;36550;50.472;19.744;2024-01-10T12:13:59;207.20;;;63.30;;
50301;SDS011;36550;50.472;19.744;2024-01-10T12:16:44;221.50;;;67.30;;
50301;SDS011;36550;50.472;19.744;2024-01-10T12:19:28;225.30;;;67.50;;
50301;SDS011;36550;50.472;19.744;2024-01-10T12:22:12;209.50;;;64.00;;
50301;SDS011;36550;50.472;19.744;2024-01-10T12:24:57;192.10;;;58.40;;
50301;SDS011;36550;50.472;19.744;2024-01-10T12:27:48;185.10;;;58.10;;
50301;SDS011;36550;50.472;19.744;2024-01-10T12:30:32;163.40;;;52.40;;
50301;SDS011;36550;50.472;19.744;2024-01-10T12:33:16;152.40;;;45.10;;
50301;SDS011;36550;50.472;19.744;2024-01-10T12:36:07;124.20;;;38.30;;
50301;SDS011;36550;50.472;19.744;2024-01-10T12:38:53;103.60;;;32.90;;
50301;SDS011;36550;50.472;19.744;2024-01-10T12:41:37;97.90;;;30.70;;
50301;SDS011;36550;50.472;19.744;2024-01-10T12:44:26;105.50;;;32.90;;
50301;SDS011;36550;50.472;19.744;2024-01-10T12:47:19;90.70;;;29.10;;
50301;SDS011;36550;50.472;19.744;2024-01-10T12:50:03;110.00;;;34.20;;
50301;SDS011;36550;50.472;19.744;2024-01-10T12:52:47;125.80;;;38.80;;
50301;SDS011;36550;50.472;19.744;2024-01-10T12:55:32;136.00;;;40.70;;
50301;SDS011;36550;50.472;19.744;2024-01-10T12:58:16;146.10;;;43.40;;
50301;SDS011;36550;50.472;19.744;2024-01-10T13:01:00;131.60;;;39.50;;
50301;SDS011;36550;50.472;19.744;2024-01-10T13:03:44;152.50;;;45.50;;
50301;SDS011;36550;50.472;19.744;2024-01-10T13:06:29;125.20;;;42.60;;
50301;SDS011;36550;50.472;19.744;2024-01-10T13:09:13;133.10;;;41.20;;
50301;SDS011;36550;50.472;19.744;2024-01-10T13:11:58;138.10;;;43.40;;
50301;SDS011;36550;50.472;19.744;2024-01-10T13:14:42;142.90;;;44.20;;
50301;SDS011;36550;50.472;19.744;2024-01-10T13:17:26;136.50;;;42.00;;
50301;SDS011;36550;50.472;19.744;2024-01-10T13:20:10;122.80;;;40.80;;
50301;SDS011;36550;50.472;19.744;2024-01-10T13:22:55;123.30;;;43.50;;
50301;SDS011;36550;50.472;19.744;2024-01-10T13:25:39;170.40;;;51.60;;
50301;SDS011;36550;50.472;19.744;2024-01-10T13:28:23;155.00;;;49.80;;
50301;SDS011;36550;50.472;19.744;2024-01-10T13:31:07;144.70;;;45.30;;
50301;SDS011;36550;50.472;19.744;2024-01-10T13:33:53;117.50;;;37.70;;
50301;SDS011;36550;50.472;19.744;2024-01-10T13:36:38;108.60;;;36.00;;
50301;SDS011;36550;50.472;19.744;2024-01-10T13:39:22;127.70;;;44.50;;
50301;SDS011;36550;50.472;19.744;2024-01-10T13:42:06;129.20;;;45.00;;
50301;SDS011;36550;50.472;19.744;2024-01-10T13:44:50;115.90;;;37.90;;
50301;SDS011;36550;50.472;19.744;2024-01-10T13:47:35;130.30;;;38.20;;
50301;SDS011;36550;50.472;19.744;2024-01-10T13:50:19;110.00;;;36.40;;
50301;SDS011;36550;50.472;19.744;2024-01-10T13:53:04;95.30;;;30.60;;
50301;SDS011;36550;50.472;19.744;2024-01-10T13:55:48;92.40;;;31.90;;
50301;SDS011;36550;50.472;19.744;2024-01-10T13:58:34;95.40;;;34.20;;
50301;SDS011;36550;50.472;19.744;2024-01-10T14:01:18;99.60;;;32.30;;
50301;SDS011;36550;50.472;19.744;2024-01-10T14:04:02;87.00;;;30.90;;
50301;SDS011;36550;50.472;19.744;2024-01-10T14:06:46;93.40;;;32.60;;
50301;SDS011;36550;50.472;19.744;2024-01-10T14:09:30;82.30;;;29.50;;
50301;SDS011;36550;50.472;19.744;2024-01-10T14:12:15;82.10;;;26.50;;
50301;SDS011;36550;50.472;19.744;2024-01-10T14:14:59;86.00;;;26.50;;
50301;SDS011;36550;50.472;19.744;2024-01-10T14:17:46;81.60;;;27.00;;
50301;SDS011;36550;50.472;19.744;2024-01-10T14:20:30;91.90;;;30.00;;
50301;SDS011;36550;50.472;19.744;2024-01-10T14:23:14;94.00;;;31.50;;
50301;SDS011;36550;50.472;19.744;2024-01-10T14:26:01;99.80;;;29.90;;
50301;SDS011;36550;50.472;19.744;2024-01-10T14:28:45;95.80;;;30.90;;
50301;SDS011;36550;50.472;19.744;2024-01-10T14:31:30;93.00;;;29.20;;
50301;SDS011;36550;50.472;19.744;2024-01-10T14:34:14;79.10;;;27.40;;
50301;SDS011;36550;50.472;19.744;2024-01-10T14:36:59;164.90;;;45.70;;
50301;SDS011;36550;50.472;19.744;2024-01-10T14:39:43;176.40;;;50.90;;
50301;SDS011;36550;50.472;19.744;2024-01-10T14:42:27;196.20;;;59.70;;
50301;SDS011;36550;50.472;19.744;2024-01-10T14:45:11;173.00;;;51.70;;
50301;SDS011;36550;50.472;19.744;2024-01-10T14:47:55;147.00;;;46.60;;
50301;SDS011;36550;50.472;19.744;2024-01-10T14:50:39;200.10;;;60.70;;
50301;SDS011;36550;50.472;19.744;2024-01-10T14:53:23;254.50;;;77.90;;
50301;SDS011;36550;50.472;19.744;2024-01-10T14:56:08;263.50;;;79.80;;
50301;SDS011;36550;50.472;19.744;2024-01-10T14:58:52;376.10;;;122.00;;
50301;SDS011;36550;50.472;19.744;2024-01-10T15:01:36;394.00;;;131.50;;
50301;SDS011;36550;50.472;19.744;2024-01-10T15:04:20;310.60;;;96.80;;
50301;SDS011;36550;50.472;19.744;2024-01-10T15:07:05;339.80;;;108.90;;
50301;SDS011;36550;50.472;19.744;2024-01-10T15:09:49;321.50;;;99.60;;
50301;SDS011;36550;50.472;19.744;2024-01-10T15:12:34;284.50;;;88.40;;
50301;SDS011;36550;50.472;19.744;2024-01-10T15:15:18;247.30;;;77.60;;
50301;SDS011;36550;50.472;19.744;2024-01-10T15:18:02;251.30;;;72.80;;
50301;SDS011;36550;50.472;19.744;2024-01-10T15:20:47;221.80;;;64.80;;
50301;SDS011;36550;50.472;19.744;2024-01-10T15:23:32;206.50;;;63.90;;
50301;SDS011;36550;50.472;19.744;2024-01-10T15:26:16;192.10;;;57.80;;
50301;SDS011;36550;50.472;19.744;2024-01-10T15:29:04;204.30;;;60.30;;
50301;SDS011;36550;50.472;19.744;2024-01-10T15:31:48;198.70;;;61.50;;
50301;SDS011;36550;50.472;19.744;2024-01-10T15:34:33;165.90;;;49.40;;
50301;SDS011;36550;50.472;19.744;2024-01-10T15:37:17;172.30;;;50.90;;
50301;SDS011;36550;50.472;19.744;2024-01-10T15:40:02;188.40;;;53.00;;
50301;SDS011;36550;50.472;19.744;2024-01-10T15:42:51;170.80;;;50.40;;
50301;SDS011;36550;50.472;19.744;2024-01-10T15:45:35;174.30;;;49.60;;
50301;SDS011;36550;50.472;19.744;2024-01-10T15:48:19;189.50;;;54.00;;
50301;SDS011;36550;50.472;19.744;2024-01-10T15:51:04;159.80;;;45.80;;
50301;SDS011;36550;50.472;19.744;2024-01-10T15:53:48;177.60;;;51.50;;
50301;SDS011;36550;50.472;19.744;2024-01-10T15:56:33;164.80;;;48.30;;
50301;SDS011;36550;50.472;19.744;2024-01-10T15:59:22;190.50;;;52.40;;
50301;SDS011;36550;50.472;19.744;2024-01-10T16:02:06;177.40;;;53.20;;
50301;SDS011;36550;50.472;19.744;2024-01-10T16:04:50;175.10;;;53.60;;
50301;SDS011;36550;50.472;19.744;2024-01-10T16:07:39;173.80;;;56.40;;
50301;SDS011;36550;50.472;19.744;2024-01-10T16:10:23;167.90;;;50.60;;
50301;SDS011;36550;50.472;19.744;2024-01-10T16:13:08;170.10;;;49.80;;
50301;SDS011;36550;50.472;19.744;2024-01-10T16:15:53;166.00;;;49.40;;
50301;SDS011;36550;50.472;19.744;2024-01-10T16:18:39;176.60;;;50.10;;
50301;SDS011;36550;50.472;19.744;2024-01-10T16:21:23;186.40;;;52.00;;
50301;SDS011;36550;50.472;19.744;2024-01-10T16:24:07;208.30;;;60.90;;
50301;SDS011;36550;50.472;19.744;2024-01-10T16:26:52;234.20;;;67.60;;
50301;SDS011;36550;50.472;19.744;2024-01-10T16:29:36;251.70;;;69.80;;
50301;SDS011;36550;50.472;19.744;2024-01-10T16:32:20;211.40;;;57.00;;
50301;SDS011;36550;50.472;19.744;2024-01-10T16:35:05;208.90;;;59.20;;
50301;SDS011;36550;50.472;19.744;2024-01-10T16:37:49;232.10;;;66.10;;